sensor_id;sensor_type;location;lat;lon;timestamp;pressure;altitude;pressure_sealevel;temperature;humidity
56040;BME280;43937;41.366;2.072;2023-07-31T00:01:20;101032.91;;;28.15;60.97
56040;BME280;43937;41.366;2.072;2023-07-31T00:03:46;101014.66;;;27.92;60.78
56040;BME280;43937;41.366;2.072;2023-07-31T00:06:12;101028.66;;;28.02;61.64
56040;BME280;43937;41.366;2.072;2023-07-31T00:08:37;101016.06;;;27.94;61.70
56040;BME280;43937;41.366;2.072;2023-07-31T00:11:02;101028.38;;;27.98;62.24
56040;BME280;43937;41.366;2.072;2023-07-31T00:13:28;101026.44;;;27.94;62.23
56040;BME280;43937;41.366;2.072;2023-07-31T00:15:53;101029.53;;;28.02;61.68
56040;BME280;43937;41.366;2.072;2023-07-31T00:18:19;101026.72;;;27.97;61.46
56040;BME280;43937;41.366;2.072;2023-07-31T00:20:44;101024.72;;;27.93;62.67
56040;BME280;43937;41.366;2.072;2023-07-31T00:23:10;101020.84;;;27.94;62.10
56040;BME280;43937;41.366;2.072;2023-07-31T00:25:35;101016.06;;;27.84;62.46
56040;BME280;43937;41.366;2.072;2023-07-31T00:28:00;101018.59;;;28.01;61.04
56040;BME280;43937;41.366;2.072;2023-07-31T00:30:26;101015.00;;;28.05;61.54
56040;BME280;43937;41.366;2.072;2023-07-31T00:32:52;101007.41;;;27.96;61.94
56040;BME280;43937;41.366;2.072;2023-07-31T00:35:17;101007.66;;;27.89;61.49
56040;BME280;43937;41.366;2.072;2023-07-31T00:37:43;101009.06;;;27.86;62.34
56040;BME280;43937;41.366;2.072;2023-07-31T00:40:08;101011.56;;;27.78;62.37
56040;BME280;43937;41.366;2.072;2023-07-31T00:42:34;100993.88;;;27.67;62.10
56040;BME280;43937;41.366;2.072;2023-07-31T00:44:59;101007.66;;;27.79;62.25
56040;BME280;43937;41.366;2.072;2023-07-31T00:47:25;100986.31;;;27.68;62.04
56040;BME280;43937;41.366;2.072;2023-07-31T00:49:51;100998.38;;;27.73;61.85
56040;BME280;43937;41.366;2.072;2023-07-31T00:52:17;100995.31;;;27.75;62.28
56040;BME280;43937;41.366;2.072;2023-07-31T00:54:43;100983.22;;;27.64;62.18
56040;BME280;43937;41.366;2.072;2023-07-31T00:57:09;100964.44;;;27.49;62.04
56040;BME280;43937;41.366;2.072;2023-07-31T00:59:34;100988.28;;;27.67;61.87
56040;BME280;43937;41.366;2.072;2023-07-31T01:02:00;100979.56;;;27.53;62.21
56040;BME280;43937;41.366;2.072;2023-07-31T01:04:26;100982.66;;;27.62;61.65
56040;BME280;43937;41.366;2.072;2023-07-31T01:07:01;100984.94;;;27.70;61.12
56040;BME280;43937;41.366;2.072;2023-07-31T01:11:57;100979.88;;;27.57;61.22
56040;BME280;43937;41.366;2.072;2023-07-31T01:14:25;100973.72;;;27.65;60.65
56040;BME280;43937;41.366;2.072;2023-07-31T01:16:51;100948.50;;;27.50;60.70
56040;BME280;43937;41.366;2.072;2023-07-31T01:19:18;100976.53;;;27.60;60.92
56040;BME280;43937;41.366;2.072;2023-07-31T01:27:29;100962.50;;;27.55;59.60
56040;BME280;43937;41.366;2.072;2023-07-31T01:30:05;100970.63;;;27.56;59.20
56040;BME280;43937;41.366;2.072;2023-07-31T01:32:40;100978.19;;;27.61;58.81
56040;BME280;43937;41.366;2.072;2023-07-31T01:35:07;100973.72;;;27.65;58.72
56040;BME280;43937;41.366;2.072;2023-07-31T01:37:33;100941.22;;;27.38;57.65
56040;BME280;43937;41.366;2.072;2023-07-31T01:39:59;100978.97;;;27.46;57.69
56040;BME280;43937;41.366;2.072;2023-07-31T01:42:24;100964.44;;;27.39;57.91
56040;BME280;43937;41.366;2.072;2023-07-31T01:44:50;100984.25;;;27.32;58.16
56040;BME280;43937;41.366;2.072;2023-07-31T01:47:15;100975.28;;;27.30;58.25
56040;BME280;43937;41.366;2.072;2023-07-31T01:49:41;100952.22;;;27.08;58.27
56040;BME280;43937;41.366;2.072;2023-07-31T01:52:06;100973.84;;;27.23;57.83
56040;BME280;43937;41.366;2.072;2023-07-31T01:54:32;100969.91;;;27.18;57.54
56040;BME280;43937;41.366;2.072;2023-07-31T01:56:58;100953.59;;;27.00;56.76
56040;BME280;43937;41.366;2.072;2023-07-31T01:59:24;100970.69;;;27.14;57.45
56040;BME280;43937;41.366;2.072;2023-07-31T02:01:49;100966.22;;;27.13;58.14
56040;BME280;43937;41.366;2.072;2023-07-31T02:04:15;100941.06;;;27.13;57.47
56040;BME280;43937;41.366;2.072;2023-07-31T02:06:40;100962.41;;;27.24;58.35
56040;BME280;43937;41.366;2.072;2023-07-31T02:09:06;100945.78;;;27.07;59.15
56040;BME280;43937;41.366;2.072;2023-07-31T02:11:31;100962.00;;;27.10;57.02
56040;BME280;43937;41.366;2.072;2023-07-31T02:13:56;100956.41;;;27.10;55.63
56040;BME280;43937;41.366;2.072;2023-07-31T02:16:22;100945.78;;;27.07;54.57
56040;BME280;43937;41.366;2.072;2023-07-31T02:18:47;100943.63;;;27.20;54.75
56040;BME280;43937;41.366;2.072;2023-07-31T02:21:13;100952.34;;;27.28;54.47
56040;BME280;43937;41.366;2.072;2023-07-31T02:23:38;100944.47;;;27.20;55.64
56040;BME280;43937;41.366;2.072;2023-07-31T02:26:04;100930.00;;;27.28;55.35
56040;BME280;43937;41.366;2.072;2023-07-31T02:28:29;100942.59;;;27.36;55.52
56040;BME280;43937;41.366;2.072;2023-07-31T02:30:55;100954.06;;;27.39;54.90
56040;BME280;43937;41.366;2.072;2023-07-31T02:33:20;100952.91;;;27.25;53.70
56040;BME280;43937;41.366;2.072;2023-07-31T02:35:46;100951.81;;;27.31;54.13
56040;BME280;43937;41.366;2.072;2023-07-31T02:38:11;100944.81;;;27.34;52.85
56040;BME280;43937;41.366;2.072;2023-07-31T02:40:37;100932.53;;;27.30;53.13
56040;BME280;43937;41.366;2.072;2023-07-31T02:43:02;100941.81;;;27.56;52.65
56040;BME280;43937;41.366;2.072;2023-07-31T02:45:27;100947.16;;;27.57;52.95
56040;BME280;43937;41.366;2.072;2023-07-31T02:47:53;100940.72;;;27.57;52.89
56040;BME280;43937;41.366;2.072;2023-07-31T02:50:18;100945.19;;;27.68;53.66
56040;BME280;43937;41.366;2.072;2023-07-31T02:52:44;100948.31;;;27.72;53.19
56040;BME280;43937;41.366;2.072;2023-07-31T02:55:09;100942.16;;;27.75;53.50
56040;BME280;43937;41.366;2.072;2023-07-31T02:57:35;100935.75;;;27.79;53.67
56040;BME280;43937;41.366;2.072;2023-07-31T03:00:00;100943.34;;;27.84;53.16
56040;BME280;43937;41.366;2.072;2023-07-31T03:02:26;100935.19;;;27.82;53.32
56040;BME280;43937;41.366;2.072;2023-07-31T03:04:51;100940.25;;;27.85;52.89
56040;BME280;43937;41.366;2.072;2023-07-31T03:07:17;100913.31;;;27.64;53.23
56040;BME280;43937;41.366;2.072;2023-07-31T03:09:43;100926.47;;;27.74;53.00
56040;BME280;43937;41.366;2.072;2023-07-31T03:12:08;100942.72;;;27.77;52.50
56040;BME280;43937;41.366;2.072;2023-07-31T03:14:34;100941.03;;;27.71;52.04
56040;BME280;43937;41.366;2.072;2023-07-31T03:16:59;100941.31;;;27.69;51.81
56040;BME280;43937;41.366;2.072;2023-07-31T03:19:25;100918.34;;;27.57;51.84
56040;BME280;43937;41.366;2.072;2023-07-31T03:21:50;100915.81;;;27.55;51.12
56040;BME280;43937;41.366;2.072;2023-07-31T03:24:16;100937.09;;;27.67;51.25
56040;BME280;43937;41.366;2.072;2023-07-31T03:26:41;100941.28;;;27.64;50.85
56040;BME280;43937;41.366;2.072;2023-07-31T03:29:07;100923.94;;;27.57;51.61
56040;BME280;43937;41.366;2.072;2023-07-31T03:31:33;100913.03;;;27.55;52.47
56040;BME280;43937;41.366;2.072;2023-07-31T03:33:58;100929.03;;;27.80;51.96
56040;BME280;43937;41.366;2.072;2023-07-31T03:36:24;100936.34;;;27.81;51.21
56040;BME280;43937;41.366;2.072;2023-07-31T03:38:51;100926.81;;;27.82;51.25
56040;BME280;43937;41.366;2.072;2023-07-31T03:41:16;100931.28;;;27.78;51.84
56040;BME280;43937;41.366;2.072;2023-07-31T03:43:42;100913.91;;;27.66;51.40
56040;BME280;43937;41.366;2.072;2023-07-31T03:46:07;100931.28;;;27.89;51.15
56040;BME280;43937;41.366;2.072;2023-07-31T03:48:33;100920.97;;;27.94;51.18
56040;BME280;43937;41.366;2.072;2023-07-31T03:50:58;100908.91;;;27.83;50.47
56040;BME280;43937;41.366;2.072;2023-07-31T03:53:24;100927.41;;;28.05;50.37
56040;BME280;43937;41.366;2.072;2023-07-31T03:55:49;100929.06;;;28.06;50.77
56040;BME280;43937;41.366;2.072;2023-07-31T03:58:14;100910.59;;;28.00;50.11
56040;BME280;43937;41.366;2.072;2023-07-31T04:00:40;100924.31;;;28.17;49.43
56040;BME280;43937;41.366;2.072;2023-07-31T04:03:07;100929.91;;;28.17;49.13
56040;BME280;43937;41.366;2.072;2023-07-31T04:05:33;100930.19;;;28.10;50.35
56040;BME280;43937;41.366;2.072;2023-07-31T04:07:58;100921.25;;;28.08;50.19
56040;BME280;43937;41.366;2.072;2023-07-31T04:10:24;100928.81;;;28.02;49.36
56040;BME280;43937;41.366;2.072;2023-07-31T04:12:49;100912.81;;;27.82;50.27
56040;BME280;43937;41.366;2.072;2023-07-31T04:15:15;100919.81;;;27.80;50.51
56040;BME280;43937;41.366;2.072;2023-07-31T04:17:40;100904.94;;;27.64;51.59
56040;BME280;43937;41.366;2.072;2023-07-31T04:20:06;100907.16;;;27.62;50.77
56040;BME280;43937;41.366;2.072;2023-07-31T04:22:32;100924.78;;;27.62;51.29
56040;BME280;43937;41.366;2.072;2023-07-31T04:24:57;100913.91;;;27.66;50.92
56040;BME280;43937;41.366;2.072;2023-07-31T04:27:22;100922.81;;;27.58;50.49
56040;BME280;43937;41.366;2.072;2023-07-31T04:29:48;100923.63;;;27.43;50.38
56040;BME280;43937;41.366;2.072;2023-07-31T04:32:13;100923.06;;;27.46;50.29
56040;BME280;43937;41.366;2.072;2023-07-31T04:34:41;100919.41;;;27.35;50.24
56040;BME280;43937;41.366;2.072;2023-07-31T04:37:07;100903.13;;;27.22;50.12
56040;BME280;43937;41.366;2.072;2023-07-31T04:39:32;100897.19;;;27.13;51.42
56040;BME280;43937;41.366;2.072;2023-07-31T04:41:58;100930.56;;;27.30;51.73
56040;BME280;43937;41.366;2.072;2023-07-31T04:44:23;100942.28;;;27.27;52.54
56040;BME280;43937;41.366;2.072;2023-07-31T04:46:48;100937.78;;;27.21;53.08
56040;BME280;43937;41.366;2.072;2023-07-31T04:49:14;100942.03;;;27.34;52.32
56040;BME280;43937;41.366;2.072;2023-07-31T04:51:39;100943.16;;;27.38;51.97
56040;BME280;43937;41.366;2.072;2023-07-31T04:54:05;100945.75;;;27.55;51.54
56040;BME280;43937;41.366;2.072;2023-07-31T04:56:30;100937.38;;;27.65;51.25
56040;BME280;43937;41.366;2.072;2023-07-31T04:58:55;100940.22;;;27.75;50.70
56040;BME280;43937;41.366;2.072;2023-07-31T05:01:21;100934.09;;;27.78;52.02
56040;BME280;43937;41.366;2.072;2023-07-31T05:03:46;100929.34;;;27.84;51.75
56040;BME280;43937;41.366;2.072;2023-07-31T05:06:12;100941.66;;;28.03;51.60
56040;BME280;43937;41.366;2.072;2023-07-31T05:08:39;100941.94;;;28.22;51.25
56040;BME280;43937;41.366;2.072;2023-07-31T05:11:05;100950.91;;;28.29;51.75
56040;BME280;43937;41.366;2.072;2023-07-31T05:13:30;100944.19;;;28.25;52.48
56040;BME280;43937;41.366;2.072;2023-07-31T05:15:56;100939.75;;;28.45;52.42
56040;BME280;43937;41.366;2.072;2023-07-31T05:18:21;100950.38;;;28.63;52.34
56040;BME280;43937;41.366;2.072;2023-07-31T05:20:46;100946.41;;;28.80;51.58
56040;BME280;43937;41.366;2.072;2023-07-31T05:23:12;100939.41;;;29.52;49.93
56040;BME280;43937;41.366;2.072;2023-07-31T05:25:37;100942.38;;;31.08;45.70
56040;BME280;43937;41.366;2.072;2023-07-31T05:28:03;100940.44;;;32.60;42.88
56040;BME280;43937;41.366;2.072;2023-07-31T05:30:30;100940.06;;;33.63;39.94
56040;BME280;43937;41.366;2.072;2023-07-31T05:32:56;100947.38;;;34.46;38.46
56040;BME280;43937;41.366;2.072;2023-07-31T05:35:21;100954.28;;;34.84;37.95
56040;BME280;43937;41.366;2.072;2023-07-31T05:37:47;100948.63;;;35.16;37.00
56040;BME280;43937;41.366;2.072;2023-07-31T05:40:12;100940.16;;;33.72;39.55
56040;BME280;43937;41.366;2.072;2023-07-31T05:42:38;100946.88;;;32.47;40.53
56040;BME280;43937;41.366;2.072;2023-07-31T05:45:05;100919.38;;;31.68;42.45
56040;BME280;43937;41.366;2.072;2023-07-31T05:47:31;100947.72;;;31.29;42.91
56040;BME280;43937;41.366;2.072;2023-07-31T05:49:56;100928.59;;;30.83;44.11
56040;BME280;43937;41.366;2.072;2023-07-31T05:52:22;100949.84;;;30.65;45.00
56040;BME280;43937;41.366;2.072;2023-07-31T05:54:47;100946.47;;;30.39;45.25
56040;BME280;43937;41.366;2.072;2023-07-31T05:57:13;100937.56;;;30.26;44.95
56040;BME280;43937;41.366;2.072;2023-07-31T05:59:38;100944.03;;;30.27;45.57
56040;BME280;43937;41.366;2.072;2023-07-31T06:02:04;100943.78;;;30.18;44.98
56040;BME280;43937;41.366;2.072;2023-07-31T06:04:29;100945.91;;;29.97;45.54
56040;BME280;43937;41.366;2.072;2023-07-31T06:06:55;100935.41;;;29.74;45.89
56040;BME280;43937;41.366;2.072;2023-07-31T06:09:20;100942.16;;;29.67;46.01
56040;BME280;43937;41.366;2.072;2023-07-31T06:11:46;100919.81;;;29.47;46.51
56040;BME280;43937;41.366;2.072;2023-07-31T06:14:11;100943.88;;;29.69;46.65
56040;BME280;43937;41.366;2.072;2023-07-31T06:16:37;100905.25;;;29.45;46.69
56040;BME280;43937;41.366;2.072;2023-07-31T06:19:02;100948.34;;;29.64;46.86
56040;BME280;43937;41.366;2.072;2023-07-31T06:21:28;100944.47;;;29.50;47.47
56040;BME280;43937;41.366;2.072;2023-07-31T06:23:55;100949.59;;;29.38;47.33
56040;BME280;43937;41.366;2.072;2023-07-31T06:26:20;100944.84;;;29.33;48.43
56040;BME280;43937;41.366;2.072;2023-07-31T06:28:45;100947.13;;;29.26;48.43
56040;BME280;43937;41.366;2.072;2023-07-31T06:31:11;100939.50;;;29.42;48.63
56040;BME280;43937;41.366;2.072;2023-07-31T06:33:37;100949.50;;;29.63;48.78
56040;BME280;43937;41.366;2.072;2023-07-31T06:36:02;100958.41;;;29.76;48.79
56040;BME280;43937;41.366;2.072;2023-07-31T06:38:28;100946.34;;;29.75;49.31
56040;BME280;43937;41.366;2.072;2023-07-31T06:40:53;100952.47;;;29.77;49.35
56040;BME280;43937;41.366;2.072;2023-07-31T06:43:19;100961.13;;;29.86;48.85
56040;BME280;43937;41.366;2.072;2023-07-31T06:45:44;100937.94;;;29.75;49.27
56040;BME280;43937;41.366;2.072;2023-07-31T06:48:10;100945.44;;;29.85;48.80
56040;BME280;43937;41.366;2.072;2023-07-31T06:50:36;100963.56;;;30.03;49.40
56040;BME280;43937;41.366;2.072;2023-07-31T06:53:02;100962.06;;;30.10;48.93
56040;BME280;43937;41.366;2.072;2023-07-31T06:55:28;100957.56;;;30.15;49.67
56040;BME280;43937;41.366;2.072;2023-07-31T06:57:55;100927.03;;;30.08;49.43
56040;BME280;43937;41.366;2.072;2023-07-31T07:00:21;100963.66;;;30.32;50.18
56040;BME280;43937;41.366;2.072;2023-07-31T07:02:47;100962.47;;;30.38;49.57
56040;BME280;43937;41.366;2.072;2023-07-31T07:05:13;100966.34;;;30.42;49.78
56040;BME280;43937;41.366;2.072;2023-07-31T07:07:41;100960.75;;;30.42;49.66
56040;BME280;43937;41.366;2.072;2023-07-31T07:10:07;100967.44;;;30.46;50.22
56040;BME280;43937;41.366;2.072;2023-07-31T07:12:34;100959.59;;;30.43;50.07
56040;BME280;43937;41.366;2.072;2023-07-31T07:15:00;100965.22;;;30.43;49.72
56040;BME280;43937;41.366;2.072;2023-07-31T07:17:27;100968.03;;;30.43;49.75
56040;BME280;43937;41.366;2.072;2023-07-31T07:19:52;100962.41;;;30.43;49.98
56040;BME280;43937;41.366;2.072;2023-07-31T07:22:18;100958.19;;;30.46;50.11
56040;BME280;43937;41.366;2.072;2023-07-31T07:24:43;100947.28;;;30.39;50.20
56040;BME280;43937;41.366;2.072;2023-07-31T07:27:09;100975.78;;;30.56;50.37
56040;BME280;43937;41.366;2.072;2023-07-31T07:29:35;100962.66;;;30.47;50.78
56040;BME280;43937;41.366;2.072;2023-07-31T07:32:00;100970.78;;;30.48;51.54
56040;BME280;43937;41.366;2.072;2023-07-31T07:34:27;100975.28;;;30.49;51.50
56040;BME280;43937;41.366;2.072;2023-07-31T07:36:53;100978.88;;;30.55;51.63
56040;BME280;43937;41.366;2.072;2023-07-31T07:39:18;100969.06;;;30.52;51.19
56040;BME280;43937;41.366;2.072;2023-07-31T07:41:44;100988.94;;;30.61;50.64
56040;BME280;43937;41.366;2.072;2023-07-31T07:44:09;100972.66;;;30.58;51.18
56040;BME280;43937;41.366;2.072;2023-07-31T07:46:35;100979.94;;;30.59;50.79
56040;BME280;43937;41.366;2.072;2023-07-31T07:49:00;100976.81;;;30.66;51.90
56040;BME280;43937;41.366;2.072;2023-07-31T07:51:26;100981.53;;;30.70;51.95
56040;BME280;43937;41.366;2.072;2023-07-31T07:53:51;100989.00;;;30.85;51.74
56040;BME280;43937;41.366;2.072;2023-07-31T07:56:17;100986.28;;;30.75;52.00
56040;BME280;43937;41.366;2.072;2023-07-31T07:58:42;100970.53;;;30.74;52.55
56040;BME280;43937;41.366;2.072;2023-07-31T08:01:08;100977.03;;;30.74;53.19
56040;BME280;43937;41.366;2.072;2023-07-31T08:03:33;100992.72;;;30.80;52.71
56040;BME280;43937;41.366;2.072;2023-07-31T08:06:00;100991.81;;;30.85;52.64
56040;BME280;43937;41.366;2.072;2023-07-31T08:08:25;100990.16;;;30.84;52.44
56040;BME280;43937;41.366;2.072;2023-07-31T08:10:51;100972.22;;;30.75;53.30
56040;BME280;43937;41.366;2.072;2023-07-31T08:13:16;100980.22;;;30.92;53.10
56040;BME280;43937;41.366;2.072;2023-07-31T08:15:42;100959.72;;;30.91;53.55
56040;BME280;43937;41.366;2.072;2023-07-31T08:18:08;100960.78;;;30.95;53.49
56040;BME280;43937;41.366;2.072;2023-07-31T08:20:33;100993.81;;;31.09;53.23
56040;BME280;43937;41.366;2.072;2023-07-31T08:22:59;100984.47;;;31.13;53.53
56040;BME280;43937;41.366;2.072;2023-07-31T08:25:24;100998.91;;;31.07;53.20
56040;BME280;43937;41.366;2.072;2023-07-31T08:27:50;100998.59;;;30.84;54.71
56040;BME280;43937;41.366;2.072;2023-07-31T08:30:18;100997.25;;;31.06;53.74
56040;BME280;43937;41.366;2.072;2023-07-31T08:32:43;100986.28;;;31.28;53.55
56040;BME280;43937;41.366;2.072;2023-07-31T08:35:09;100994.19;;;31.26;52.98
56040;BME280;43937;41.366;2.072;2023-07-31T08:37:34;100991.28;;;31.36;53.14
56040;BME280;43937;41.366;2.072;2023-07-31T08:40:00;100986.47;;;31.61;52.52
56040;BME280;43937;41.366;2.072;2023-07-31T08:42:25;100993.53;;;31.77;52.94
56040;BME280;43937;41.366;2.072;2023-07-31T08:44:52;100953.56;;;31.80;52.22
56040;BME280;43937;41.366;2.072;2023-07-31T08:47:19;100985.94;;;32.34;51.99
56040;BME280;43937;41.366;2.072;2023-07-31T08:49:46;100987.81;;;32.58;51.37
56040;BME280;43937;41.366;2.072;2023-07-31T08:52:12;100969.56;;;32.36;52.61
56040;BME280;43937;41.366;2.072;2023-07-31T08:54:38;100982.41;;;32.43;52.97
56040;BME280;43937;41.366;2.072;2023-07-31T08:57:05;100978.59;;;32.71;52.95
56040;BME280;43937;41.366;2.072;2023-07-31T08:59:34;100963.13;;;32.82;51.33
56040;BME280;43937;41.366;2.072;2023-07-31T09:02:05;100982.19;;;33.18;50.50
56040;BME280;43937;41.366;2.072;2023-07-31T09:04:32;100952.50;;;32.93;50.26
56040;BME280;43937;41.366;2.072;2023-07-31T09:07:02;100966.63;;;33.07;50.28
56040;BME280;43937;41.366;2.072;2023-07-31T09:09:30;100977.34;;;32.77;50.98
56040;BME280;43937;41.366;2.072;2023-07-31T09:11:57;100984.56;;;32.83;51.27
56040;BME280;43937;41.366;2.072;2023-07-31T09:14:24;100986.00;;;32.95;52.51
56040;BME280;43937;41.366;2.072;2023-07-31T09:16:59;100979.91;;;33.06;53.38
56040;BME280;43937;41.366;2.072;2023-07-31T09:19:35;100967.78;;;33.06;52.66
56040;BME280;43937;41.366;2.072;2023-07-31T09:22:05;100973.94;;;33.36;51.30
56040;BME280;43937;41.366;2.072;2023-07-31T09:24:33;100943.63;;;33.91;50.42
56040;BME280;43937;41.366;2.072;2023-07-31T09:26:59;100984.53;;;35.06;47.35
56040;BME280;43937;41.366;2.072;2023-07-31T09:29:26;100976.59;;;34.86;47.39
56040;BME280;43937;41.366;2.072;2023-07-31T09:31:52;100973.03;;;34.72;48.09
56040;BME280;43937;41.366;2.072;2023-07-31T09:34:18;100953.66;;;34.56;48.14
56040;BME280;43937;41.366;2.072;2023-07-31T09:36:46;100971.91;;;35.13;47.03
56040;BME280;43937;41.366;2.072;2023-07-31T09:39:13;100964.78;;;35.81;44.58
56040;BME280;43937;41.366;2.072;2023-07-31T09:41:40;100969.81;;;37.01;42.80
56040;BME280;43937;41.366;2.072;2023-07-31T09:44:07;100966.66;;;37.41;41.31
56040;BME280;43937;41.366;2.072;2023-07-31T09:46:34;100959.78;;;37.42;41.32
56040;BME280;43937;41.366;2.072;2023-07-31T09:49:10;100964.50;;;37.38;40.84
56040;BME280;43937;41.366;2.072;2023-07-31T09:51:37;100963.66;;;36.99;40.97
56040;BME280;43937;41.366;2.072;2023-07-31T09:54:10;100942.75;;;36.65;40.76
56040;BME280;43937;41.366;2.072;2023-07-31T09:56:42;100957.50;;;37.86;38.67
56040;BME280;43937;41.366;2.072;2023-07-31T09:59:11;100933.22;;;38.63;37.05
56040;BME280;43937;41.366;2.072;2023-07-31T10:01:37;100952.34;;;38.42;37.59
56040;BME280;43937;41.366;2.072;2023-07-31T10:04:04;100956.41;;;38.20;38.01
56040;BME280;43937;41.366;2.072;2023-07-31T10:06:30;100952.13;;;37.33;39.69
56040;BME280;43937;41.366;2.072;2023-07-31T10:08:58;100944.66;;;38.21;38.31
56040;BME280;43937;41.366;2.072;2023-07-31T10:11:24;100939.72;;;38.31;37.59
56040;BME280;43937;41.366;2.072;2023-07-31T10:13:52;100929.22;;;37.68;38.74
56040;BME280;43937;41.366;2.072;2023-07-31T10:16:19;100934.22;;;38.13;37.71
56040;BME280;43937;41.366;2.072;2023-07-31T10:18:46;100943.81;;;38.42;36.87
56040;BME280;43937;41.366;2.072;2023-07-31T10:21:12;100946.47;;;38.47;37.62
56040;BME280;43937;41.366;2.072;2023-07-31T10:23:38;100938.75;;;38.47;37.90
56040;BME280;43937;41.366;2.072;2023-07-31T10:26:05;100933.78;;;38.57;38.32
56040;BME280;43937;41.366;2.072;2023-07-31T10:28:32;100938.44;;;38.28;38.80
56040;BME280;43937;41.366;2.072;2023-07-31T10:30:58;100924.38;;;37.90;39.38
56040;BME280;43937;41.366;2.072;2023-07-31T10:33:24;100929.09;;;37.65;40.56
56040;BME280;43937;41.366;2.072;2023-07-31T10:35:50;100917.41;;;37.07;41.76
56040;BME280;43937;41.366;2.072;2023-07-31T10:38:18;100931.94;;;35.89;44.05
56040;BME280;43937;41.366;2.072;2023-07-31T10:40:44;100913.09;;;36.28;43.87
56040;BME280;43937;41.366;2.072;2023-07-31T10:43:23;100920.13;;;37.24;42.05
56040;BME280;43937;41.366;2.072;2023-07-31T10:45:50;100919.91;;;37.08;42.60
56040;BME280;43937;41.366;2.072;2023-07-31T10:48:16;100918.41;;;38.03;40.24
56040;BME280;43937;41.366;2.072;2023-07-31T10:53:25;100922.09;;;38.04;40.43
56040;BME280;43937;41.366;2.072;2023-07-31T10:55:51;100915.16;;;37.51;41.09
56040;BME280;43937;41.366;2.072;2023-07-31T10:58:19;100921.03;;;37.16;42.37
56040;BME280;43937;41.366;2.072;2023-07-31T11:00:45;100915.25;;;36.39;43.45
56040;BME280;43937;41.366;2.072;2023-07-31T11:03:15;100921.31;;;37.53;41.48
56040;BME280;43937;41.366;2.072;2023-07-31T11:06:01;100912.81;;;37.23;42.52
56040;BME280;43937;41.366;2.072;2023-07-31T11:08:35;100909.63;;;37.46;41.23
56040;BME280;43937;41.366;2.072;2023-07-31T11:13:30;100918.97;;;37.25;42.19
56040;BME280;43937;41.366;2.072;2023-07-31T11:15:56;100876.00;;;37.06;41.50
56040;BME280;43937;41.366;2.072;2023-07-31T11:18:22;100902.28;;;36.85;42.41
56040;BME280;43937;41.366;2.072;2023-07-31T11:20:47;100902.38;;;36.68;42.82
56040;BME280;43937;41.366;2.072;2023-07-31T11:23:16;100908.91;;;36.60;42.88
56040;BME280;43937;41.366;2.072;2023-07-31T11:25:42;100901.41;;;37.02;42.08
56040;BME280;43937;41.366;2.072;2023-07-31T11:28:12;100905.94;;;37.54;40.81
56040;BME280;43937;41.366;2.072;2023-07-31T11:30:39;100906.84;;;38.42;39.31
56040;BME280;43937;41.366;2.072;2023-07-31T11:33:06;100897.03;;;38.18;38.77
56040;BME280;43937;41.366;2.072;2023-07-31T11:35:44;100883.03;;;37.29;40.68
56040;BME280;43937;41.366;2.072;2023-07-31T11:38:12;100892.72;;;36.43;42.20
56040;BME280;43937;41.366;2.072;2023-07-31T11:40:44;100890.91;;;36.47;42.85
56040;BME280;43937;41.366;2.072;2023-07-31T11:43:10;100885.47;;;35.98;43.86
56040;BME280;43937;41.366;2.072;2023-07-31T11:45:39;100878.38;;;37.04;42.37
56040;BME280;43937;41.366;2.072;2023-07-31T11:48:05;100890.06;;;37.02;42.37
56040;BME280;43937;41.366;2.072;2023-07-31T11:50:33;100876.47;;;37.38;41.14
56040;BME280;43937;41.366;2.072;2023-07-31T11:53:03;100884.66;;;36.71;42.29
56040;BME280;43937;41.366;2.072;2023-07-31T11:55:30;100845.31;;;36.05;43.05
56040;BME280;43937;41.366;2.072;2023-07-31T11:57:57;100856.66;;;35.88;44.19
56040;BME280;43937;41.366;2.072;2023-07-31T12:00:24;100860.81;;;36.08;43.38
56040;BME280;43937;41.366;2.072;2023-07-31T12:02:50;100840.78;;;37.07;41.14
56040;BME280;43937;41.366;2.072;2023-07-31T12:05:16;100862.53;;;36.64;42.25
56040;BME280;43937;41.366;2.072;2023-07-31T12:07:50;100839.56;;;37.38;41.11
56040;BME280;43937;41.366;2.072;2023-07-31T12:10:32;100853.66;;;36.66;42.92
56040;BME280;43937;41.366;2.072;2023-07-31T12:13:09;100854.88;;;37.66;41.15
56040;BME280;43937;41.366;2.072;2023-07-31T12:15:41;100850.41;;;38.32;39.64
56040;BME280;43937;41.366;2.072;2023-07-31T12:18:09;100848.50;;;38.93;38.24
56040;BME280;43937;41.366;2.072;2023-07-31T12:20:35;100851.44;;;38.85;38.28
56040;BME280;43937;41.366;2.072;2023-07-31T12:23:01;100841.25;;;39.08;37.84
56040;BME280;43937;41.366;2.072;2023-07-31T12:25:30;100837.47;;;38.80;38.18
56040;BME280;43937;41.366;2.072;2023-07-31T12:27:56;100832.66;;;37.68;40.33
56040;BME280;43937;41.366;2.072;2023-07-31T12:30:48;100829.47;;;37.49;41.04
56040;BME280;43937;41.366;2.072;2023-07-31T12:33:14;100828.94;;;37.89;40.19
56040;BME280;43937;41.366;2.072;2023-07-31T12:35:42;100807.94;;;38.02;39.21
56040;BME280;43937;41.366;2.072;2023-07-31T12:38:08;100824.16;;;38.47;39.12
56040;BME280;43937;41.366;2.072;2023-07-31T12:40:37;100787.59;;;38.24;38.63
56040;BME280;43937;41.366;2.072;2023-07-31T12:43:03;100803.44;;;38.01;39.67
56040;BME280;43937;41.366;2.072;2023-07-31T12:45:31;100813.78;;;38.30;39.45
56040;BME280;43937;41.366;2.072;2023-07-31T12:48:00;100812.94;;;38.17;39.61
56040;BME280;43937;41.366;2.072;2023-07-31T12:50:26;100800.88;;;38.20;39.06
56040;BME280;43937;41.366;2.072;2023-07-31T12:52:55;100803.91;;;37.49;40.69
56040;BME280;43937;41.366;2.072;2023-07-31T12:55:22;100792.97;;;37.39;40.93
56040;BME280;43937;41.366;2.072;2023-07-31T12:57:47;100765.41;;;37.18;41.01
56040;BME280;43937;41.366;2.072;2023-07-31T13:00:13;100786.09;;;37.19;41.15